createdAt,value
2022-08-08T00:00:53.598Z,68.67
2022-08-08T00:02:33.202Z,69.63
2022-08-08T00:05:12.710Z,69.14
2022-08-08T00:07:53.535Z,68.76
2022-08-08T00:10:33.118Z,68.36
2022-08-08T00:13:10.576Z,67.88
2022-08-08T00:15:56.470Z,67.68
2022-08-08T00:18:37.729Z,67.21
2022-08-08T00:21:08.042Z,67.37
2022-08-08T00:23:47.800Z,66.59
2022-08-08T00:26:30.909Z,67.64
2022-08-08T00:29:10.412Z,69.04
2022-08-08T00:32:20.005Z,69.69
2022-08-08T00:35:15.352Z,70.75
2022-08-08T00:38:06.491Z,70.45
2022-08-08T00:41:12.737Z,70.55
2022-08-08T00:44:09.848Z,71.54
2022-08-08T00:47:24.001Z,72.52
2022-08-08T00:50:48.285Z,73.40
2022-08-08T00:53:57.103Z,73.43
2022-08-08T00:57:40.624Z,74.35
2022-08-08T01:00:19.275Z,74.36
2022-08-08T01:04:02.546Z,73.37
2022-08-08T01:07:18.706Z,72.48
2022-08-08T01:10:29.687Z,71.98
2022-08-08T01:14:03.515Z,73.24
2022-08-08T01:17:53.245Z,73.63
2022-08-08T01:20:57.407Z,75.41
2022-08-08T01:24:31.711Z,75.13
2022-08-08T01:28:06.479Z,74.79
2022-08-08T01:32:13.074Z,74.04
2022-08-08T01:35:12.553Z,73.44
2022-08-08T01:38:31.844Z,73.33
2022-08-08T01:41:11.685Z,73.92
2022-08-08T01:43:53.453Z,74.00
2022-08-08T01:46:53.813Z,74.36
2022-08-08T01:49:45.172Z,74.87
2022-08-08T01:52:54.473Z,75.29
2022-08-08T01:56:26.537Z,75.21
2022-08-08T01:58:46.931Z,76.09
2022-08-08T02:02:00.060Z,76.83
2022-08-08T02:04:34.495Z,76.11
2022-08-08T02:07:10.039Z,75.79
2022-08-08T02:10:11.383Z,76.25
2022-08-08T02:12:52.981Z,76.80
2022-08-08T02:15:38.670Z,77.62
2022-08-08T02:18:14.632Z,77.75
2022-08-08T02:21:08.551Z,77.63
2022-08-08T02:23:47.929Z,77.36
2022-08-08T02:26:29.308Z,76.47
2022-08-08T02:29:26.288Z,75.43
2022-08-08T02:32:29.659Z,74.73
2022-08-08T02:36:02.506Z,74.55
2022-08-08T02:38:49.133Z,74.52
2022-08-08T02:41:58.592Z,74.04
2022-08-08T02:45:21.267Z,74.64
2022-08-08T02:48:37.279Z,74.67
2022-08-08T02:52:00.373Z,75.32
2022-08-08T02:55:36.552Z,75.89
2022-08-08T02:59:02.996Z,76.39
2022-08-08T03:02:47.648Z,75.86
2022-08-08T03:06:24.144Z,74.85
2022-08-08T03:10:03.948Z,72.39
2022-08-08T03:13:07.433Z,74.05
2022-08-08T03:16:35.525Z,75.26
2022-08-08T03:19:51.128Z,75.89
2022-08-08T03:22:38.233Z,76.14
2022-08-08T03:25:17.935Z,76.91
2022-08-08T03:27:56.278Z,76.97
2022-08-08T03:30:26.103Z,76.99
2022-08-08T03:33:55.430Z,76.77
2022-08-08T03:36:05.035Z,77.27
2022-08-08T03:38:57.411Z,77.66
2022-08-08T03:42:12.931Z,77.37
2022-08-08T03:44:34.726Z,77.22
2022-08-08T03:47:13.967Z,76.94
2022-08-08T03:49:58.847Z,76.97
2022-08-08T03:52:33.935Z,77.74
2022-08-08T03:55:56.344Z,78.08
2022-08-08T03:58:30.877Z,77.97
2022-08-08T04:01:20.785Z,78.00
2022-08-08T04:03:59.917Z,78.24
2022-08-08T04:06:37.150Z,77.84
2022-08-08T04:09:11.154Z,77.43
2022-08-08T04:11:57.972Z,77.07
2022-08-08T04:14:36.134Z,76.76
2022-08-08T04:17:15.584Z,76.91
2022-08-08T04:19:56.421Z,76.59
2022-08-08T04:22:29.628Z,77.02
2022-08-08T04:24:59.642Z,77.44
2022-08-08T04:28:03.137Z,76.95
2022-08-08T04:30:21.584Z,76.95
2022-08-08T04:32:54.051Z,78.16
2022-08-08T04:35:26.719Z,77.79
2022-08-08T04:37:58.266Z,77.85
2022-08-08T04:40:35.381Z,77.79
2022-08-08T04:43:05.615Z,78.10
2022-08-08T04:45:43.199Z,77.99
2022-08-08T04:48:11.849Z,78.96
2022-08-08T04:50:44.680Z,79.40
2022-08-08T04:54:27.444Z,79.43
2022-08-08T04:56:09.377Z,78.68
2022-08-08T04:58:38.355Z,78.05
2022-08-08T05:01:11.241Z,77.78
2022-08-08T05:04:09.670Z,77.98
2022-08-08T05:06:38.998Z,78.65
2022-08-08T05:09:08.152Z,78.61
2022-08-08T05:11:40.721Z,78.38
2022-08-08T05:14:14.944Z,78.43
2022-08-08T05:17:00.358Z,78.39
2022-08-08T05:20:11.573Z,78.54
2022-08-08T05:22:27.693Z,77.85
2022-08-08T05:24:57.658Z,77.66
2022-08-08T05:27:26.460Z,78.20
2022-08-08T05:30:03.171Z,77.75
2022-08-08T05:32:43.636Z,77.40
2022-08-08T05:35:15.737Z,78.19
2022-08-08T05:37:55.568Z,77.41
2022-08-08T05:40:58.127Z,77.26
2022-08-08T05:43:39.621Z,77.74
2022-08-08T05:46:24.708Z,77.03
2022-08-08T05:48:58.866Z,75.54
2022-08-08T05:51:48.234Z,74.53
2022-08-08T05:54:26.805Z,72.02
2022-08-08T05:57:00.804Z,70.65
2022-08-08T06:00:00.994Z,70.33
2022-08-08T06:03:05.224Z,69.48
2022-08-08T06:05:51.809Z,68.60
2022-08-08T06:08:32.979Z,68.44
2022-08-08T06:11:07.205Z,67.54
2022-08-08T06:13:47.483Z,66.90
2022-08-08T06:16:19.370Z,66.00
2022-08-08T06:19:20.591Z,66.37
2022-08-08T06:21:57.238Z,65.92
2022-08-08T06:24:37.047Z,65.14
2022-08-08T06:27:12.452Z,64.31
2022-08-08T06:30:01.005Z,63.97
2022-08-08T06:32:47.486Z,63.19
2022-08-08T06:36:08.243Z,63.20
2022-08-08T06:38:14.373Z,62.67
2022-08-08T06:40:54.206Z,63.40
2022-08-08T06:43:34.302Z,63.48
2022-08-08T06:46:13.492Z,62.96
2022-08-08T06:48:46.989Z,62.96
2022-08-08T06:51:16.947Z,62.51
2022-08-08T06:53:50.715Z,61.29
2022-08-08T06:56:31.313Z,63.46
2022-08-08T06:59:01.048Z,63.22
2022-08-08T07:02:16.763Z,62.52
2022-08-08T07:04:48.045Z,62.07
2022-08-08T07:07:42.587Z,61.71
2022-08-08T07:10:14.818Z,60.97
2022-08-08T07:12:49.459Z,61.17
2022-08-08T07:16:04.465Z,60.15
2022-08-08T07:18:40.842Z,60.05
2022-08-08T07:21:18.951Z,60.06
2022-08-08T07:24:01.672Z,59.46
2022-08-08T07:26:41.918Z,59.76
2022-08-08T07:29:20.280Z,59.88
2022-08-08T07:32:01.063Z,58.87
2022-08-08T07:34:32.382Z,59.59
2022-08-08T07:37:12.010Z,58.92
2022-08-08T07:39:57.908Z,58.84
2022-08-08T07:42:34.540Z,56.98
2022-08-08T07:45:07.900Z,56.74
2022-08-08T07:47:41.253Z,57.13
2022-08-08T07:50:22.144Z,57.01
2022-08-08T07:52:59.106Z,56.60
2022-08-08T07:55:30.602Z,57.34
2022-08-08T07:58:17.349Z,58.68
2022-08-08T08:00:51.630Z,59.22
2022-08-08T08:03:41.523Z,59.04
2022-08-08T08:06:16.540Z,58.03
2022-08-08T08:08:53.104Z,58.36
2022-08-08T08:11:34.124Z,57.71
2022-08-08T08:14:26.039Z,57.54
2022-08-08T08:16:54.396Z,56.55
2022-08-08T08:19:45.624Z,56.78
2022-08-08T08:22:31.421Z,55.96
2022-08-08T08:25:07.983Z,54.82
2022-08-08T08:27:39.352Z,55.12
2022-08-08T08:30:17.389Z,54.11
2022-08-08T08:32:51.191Z,55.16
2022-08-08T08:35:29.981Z,54.67
2022-08-08T08:38:17.379Z,53.48
2022-08-08T08:40:51.330Z,54.01
2022-08-08T08:43:26.963Z,54.34
2022-08-08T08:46:03.611Z,54.11
2022-08-08T08:48:35.584Z,53.65
2022-08-08T08:51:06.411Z,54.04
2022-08-08T08:53:56.721Z,54.30
2022-08-08T08:56:30.085Z,54.89
2022-08-08T08:59:06.846Z,54.21
2022-08-08T09:01:45.399Z,53.54
2022-08-08T09:04:31.516Z,53.71
2022-08-08T09:07:13.843Z,53.34
2022-08-08T09:09:57.299Z,52.43
2022-08-08T09:12:30.504Z,52.79
2022-08-08T09:15:01.049Z,52.59
2022-08-08T09:17:41.619Z,52.45
2022-08-08T09:22:01.007Z,52.34
2022-08-08T09:23:17.661Z,52.64
2022-08-08T09:25:54.658Z,52.75
2022-08-08T09:28:37.451Z,52.74
2022-08-08T09:31:16.735Z,53.33
2022-08-08T09:34:31.299Z,52.57
2022-08-08T09:37:10.209Z,52.23
2022-08-08T09:39:54.126Z,52.09
2022-08-08T09:42:25.973Z,51.91
2022-08-08T09:45:08.125Z,52.65
2022-08-08T09:48:04.161Z,52.92
2022-08-08T09:50:36.002Z,52.25
2022-08-08T09:53:32.065Z,51.74
2022-08-08T09:56:12.656Z,51.84
2022-08-08T09:58:58.652Z,51.97
2022-08-08T10:01:59.898Z,51.87
2022-08-08T10:04:38.510Z,51.84
2022-08-08T10:07:15.838Z,50.90
2022-08-08T10:10:00.966Z,48.86
2022-08-08T10:12:38.489Z,49.50
2022-08-08T10:15:24.238Z,48.38
2022-08-08T10:18:11.751Z,47.12
2022-08-08T10:20:58.303Z,47.45
2022-08-08T10:23:47.103Z,47.50
2022-08-08T10:26:51.812Z,48.75
2022-08-08T10:29:28.161Z,47.56
2022-08-08T10:32:17.079Z,47.53
2022-08-08T10:34:58.576Z,47.28
2022-08-08T10:37:31.826Z,48.53
2022-08-08T10:40:19.647Z,49.34
2022-08-08T10:42:55.114Z,49.49
2022-08-08T10:45:24.615Z,50.24
2022-08-08T10:47:59.203Z,49.40
2022-08-08T10:50:36.762Z,50.18
2022-08-08T10:53:12.487Z,49.24
2022-08-08T10:55:46.536Z,47.83
2022-08-08T10:58:16.093Z,47.34
2022-08-08T11:00:48.849Z,47.70
2022-08-08T11:04:00.469Z,47.72
2022-08-08T11:06:35.036Z,47.69
2022-08-08T11:09:15.015Z,47.87
2022-08-08T11:12:05.067Z,47.36
2022-08-08T11:14:51.353Z,46.82
2022-08-08T11:18:00.887Z,46.67
2022-08-08T11:20:17.827Z,46.14
2022-08-08T11:22:52.794Z,46.56
2022-08-08T11:25:52.809Z,46.57
2022-08-08T11:28:18.803Z,46.66
2022-08-08T11:30:50.426Z,46.50
2022-08-08T11:33:51.422Z,46.30
2022-08-08T11:36:15.393Z,45.10
2022-08-08T11:38:54.358Z,45.82
2022-08-08T11:41:24.444Z,45.14
2022-08-08T11:43:57.831Z,44.57
2022-08-08T11:46:31.771Z,45.26
2022-08-08T11:49:04.297Z,44.50
2022-08-08T11:51:39.753Z,44.05
2022-08-08T11:54:31.682Z,43.93
2022-08-08T11:57:27.996Z,43.23
2022-08-08T12:00:09.765Z,43.07
2022-08-08T12:02:51.403Z,43.40
2022-08-08T12:05:22.800Z,42.43
2022-08-08T12:07:53.346Z,41.91
2022-08-08T12:10:25.034Z,42.22
2022-08-08T12:13:04.336Z,42.11
2022-08-08T12:15:41.798Z,41.49
2022-08-08T12:18:21.250Z,42.90
2022-08-08T12:20:53.301Z,43.55
2022-08-08T12:23:42.696Z,43.91
2022-08-08T12:26:28.070Z,43.58
2022-08-08T12:29:21.471Z,42.99
2022-08-08T12:32:04.180Z,43.92
2022-08-08T12:34:43.608Z,43.24
2022-08-08T12:37:20.664Z,43.02
2022-08-08T12:40:02.099Z,42.75
2022-08-08T12:42:33.568Z,42.75
2022-08-08T12:45:53.693Z,41.96
2022-08-08T12:48:09.977Z,41.05
2022-08-08T12:50:57.727Z,41.41
2022-08-08T12:53:37.697Z,41.45
2022-08-08T12:56:19.054Z,41.08
2022-08-08T12:58:55.249Z,41.33
2022-08-08T13:01:37.199Z,41.68
2022-08-08T13:04:25.310Z,41.99
2022-08-08T13:07:02.735Z,41.95
2022-08-08T13:10:05.014Z,41.34
2022-08-08T13:12:33.834Z,41.02
2022-08-08T13:15:05.809Z,41.86
2022-08-08T13:17:53.889Z,42.22
2022-08-08T13:20:26.083Z,41.91
2022-08-08T13:23:35.952Z,42.16
2022-08-08T13:25:58.767Z,41.97
2022-08-08T13:28:32.273Z,42.33
2022-08-08T13:31:04.132Z,42.19
2022-08-08T13:33:42.129Z,43.34
2022-08-08T13:36:13.704Z,43.10
2022-08-08T13:38:42.741Z,43.20
2022-08-08T13:41:16.989Z,43.61
2022-08-08T13:43:47.637Z,43.88
2022-08-08T13:46:27.392Z,44.07
2022-08-08T13:49:11.844Z,44.16
2022-08-08T13:51:59.731Z,43.99
2022-08-08T13:54:32.480Z,44.00
2022-08-08T13:57:08.670Z,43.85
2022-08-08T13:59:44.350Z,44.64
2022-08-08T14:02:20.798Z,45.31
2022-08-08T14:05:05.129Z,45.46
2022-08-08T14:07:53.179Z,45.29
2022-08-08T14:10:33.434Z,44.96
2022-08-08T14:13:30.672Z,44.51
2022-08-08T14:16:04.320Z,44.85
2022-08-08T14:18:36.561Z,44.33
2022-08-08T14:21:20.786Z,45.37
2022-08-08T14:24:04.586Z,45.72
2022-08-08T14:26:43.054Z,44.69
2022-08-08T14:29:28.037Z,45.42
2022-08-08T14:32:09.165Z,44.96
2022-08-08T14:34:42.207Z,44.96
2022-08-08T14:37:12.595Z,45.26
2022-08-08T14:39:53.659Z,45.59
2022-08-08T14:42:34.650Z,45.46
2022-08-08T14:45:10.165Z,45.31
2022-08-08T14:47:52.078Z,44.53
2022-08-08T14:50:38.890Z,45.08
2022-08-08T14:53:13.682Z,45.49
2022-08-08T14:55:45.069Z,44.54
2022-08-08T14:58:16.494Z,44.99
2022-08-08T15:00:49.439Z,44.91
2022-08-08T15:03:18.742Z,44.71
2022-08-08T15:05:54.245Z,44.88
2022-08-08T15:08:34.565Z,44.98
2022-08-08T15:11:06.465Z,45.46
2022-08-08T15:13:40.868Z,45.77
2022-08-08T15:16:23.567Z,45.82
2022-08-08T15:18:52.384Z,45.75
2022-08-08T15:21:22.095Z,46.08
2022-08-08T15:23:51.120Z,46.41
2022-08-08T15:26:25.438Z,46.44
2022-08-08T15:28:54.594Z,46.84
2022-08-08T15:31:56.236Z,47.05
2022-08-08T15:34:18.516Z,47.05
2022-08-08T15:36:59.930Z,47.16
2022-08-08T15:39:38.138Z,47.27
2022-08-08T15:42:17.874Z,47.64
2022-08-08T15:44:58.656Z,47.59
2022-08-08T15:47:27.074Z,47.56
2022-08-08T15:49:55.442Z,47.59
2022-08-08T15:52:25.080Z,47.49
2022-08-08T15:54:54.797Z,47.73
2022-08-08T15:57:24.926Z,47.53
2022-08-08T16:00:06.046Z,47.69
2022-08-08T16:02:44.463Z,48.14
2022-08-08T16:05:20.498Z,47.90
2022-08-08T16:07:51.578Z,48.18
2022-08-08T16:13:03.531Z,48.83
2022-08-08T16:13:45.260Z,48.93
2022-08-08T16:16:16.516Z,49.45
2022-08-08T16:18:56.937Z,49.36
2022-08-08T16:21:30.584Z,49.91
2022-08-08T16:24:01.413Z,50.19
2022-08-08T16:26:35.937Z,50.54
2022-08-08T16:29:15.687Z,50.14
2022-08-08T16:31:49.024Z,50.08
2022-08-08T16:34:21.527Z,50.58
2022-08-08T16:36:51.030Z,50.15
2022-08-08T16:39:49.131Z,50.75
2022-08-08T16:42:18.116Z,50.89
2022-08-08T16:44:54.622Z,50.95
2022-08-08T16:47:31.908Z,52.07
2022-08-08T16:50:15.155Z,52.07
2022-08-08T16:55:04.210Z,52.04
2022-08-08T16:55:54.154Z,52.29
2022-08-08T16:58:25.853Z,52.39
2022-08-08T17:00:57.865Z,52.50
2022-08-08T17:03:58.076Z,52.63
2022-08-08T17:06:37.275Z,52.78
2022-08-08T17:09:04.939Z,53.05
2022-08-08T17:11:38.949Z,52.13
2022-08-08T17:14:19.585Z,51.94
2022-08-08T17:16:58.836Z,51.91
2022-08-08T17:19:31.781Z,52.60
2022-08-08T17:22:06.942Z,52.68
2022-08-08T17:24:35.808Z,53.36
2022-08-08T17:27:05.725Z,53.82
2022-08-08T17:29:43.877Z,53.57
2022-08-08T17:32:28.990Z,53.25
2022-08-08T17:35:54.464Z,53.87
2022-08-08T17:37:53.293Z,54.42
2022-08-08T17:40:22.417Z,54.77
2022-08-08T17:42:51.789Z,55.16
2022-08-08T17:45:23.592Z,55.50
2022-08-08T17:47:54.981Z,55.51
2022-08-08T17:50:25.148Z,55.49
2022-08-08T17:52:57.533Z,55.42
2022-08-08T17:56:04.873Z,55.71
2022-08-08T17:58:15.485Z,55.94
2022-08-08T18:00:47.639Z,55.74
2022-08-08T18:03:26.825Z,55.77
2022-08-08T18:05:55.397Z,55.76
2022-08-08T18:08:24.888Z,55.79
2022-08-08T18:11:11.766Z,55.96
2022-08-08T18:13:43.456Z,56.03
2022-08-08T18:16:12.701Z,56.47
2022-08-08T18:18:53.144Z,56.45
2022-08-08T18:22:00.403Z,56.37
2022-08-08T18:24:19.596Z,57.37
2022-08-08T18:26:55.001Z,56.96
2022-08-08T18:29:33.433Z,56.87
2022-08-08T18:32:05.241Z,56.78
2022-08-08T18:34:37.758Z,57.65
2022-08-08T18:37:09.332Z,57.21
2022-08-08T18:39:41.421Z,57.18
2022-08-08T18:42:14.414Z,57.13
2022-08-08T18:44:55.894Z,57.66
2022-08-08T18:47:27.344Z,57.53
2022-08-08T18:50:00.258Z,57.69
2022-08-08T18:52:30.602Z,57.88
2022-08-08T18:55:09.515Z,58.08
2022-08-08T18:57:44.526Z,58.25
2022-08-08T19:00:21.024Z,58.26
2022-08-08T19:03:01.615Z,57.97
2022-08-08T19:05:44.189Z,57.87
2022-08-08T19:08:25.644Z,57.63
2022-08-08T19:10:59.897Z,57.98
2022-08-08T19:13:52.773Z,58.17
2022-08-08T19:16:23.645Z,57.83
2022-08-08T19:19:02.462Z,58.20
2022-08-08T19:21:48.918Z,57.70
2022-08-08T19:24:42.356Z,57.75
2022-08-08T19:27:07.863Z,57.96
2022-08-08T19:29:42.186Z,58.02
2022-08-08T19:32:12.627Z,58.17
2022-08-08T19:34:42.890Z,58.38
2022-08-08T19:37:16.402Z,58.47
2022-08-08T19:39:46.207Z,59.05
2022-08-08T19:42:19.504Z,58.60
2022-08-08T19:44:50.357Z,58.89
2022-08-08T19:47:24.515Z,59.27
2022-08-08T19:49:59.873Z,59.70
2022-08-08T19:52:37.144Z,59.45
2022-08-08T19:55:11.393Z,59.70
2022-08-08T19:57:42.541Z,60.03
2022-08-08T20:00:30.835Z,60.16
2022-08-08T20:03:01.172Z,60.62
2022-08-08T20:06:13.362Z,60.79
2022-08-08T20:08:29.239Z,60.85
2022-08-08T20:11:00.836Z,61.12
2022-08-08T20:14:12.445Z,61.14
2022-08-08T20:16:18.482Z,61.13
2022-08-08T20:18:52.499Z,61.18
2022-08-08T20:21:25.513Z,61.07
2022-08-08T20:23:58.073Z,60.90
2022-08-08T20:26:33.275Z,61.47
2022-08-08T20:29:03.102Z,61.14
2022-08-08T20:32:02.677Z,61.07
2022-08-08T20:34:28.987Z,61.59
2022-08-08T20:37:00.928Z,61.08
2022-08-08T20:39:34.005Z,61.02
2022-08-08T20:42:10.245Z,61.23
2022-08-08T20:44:38.945Z,61.16
2022-08-08T20:47:23.042Z,60.93
2022-08-08T20:49:54.415Z,61.33
2022-08-08T20:52:28.424Z,60.88
2022-08-08T20:54:58.789Z,61.42
2022-08-08T20:57:28.021Z,61.23
2022-08-08T20:59:56.954Z,61.25
2022-08-08T21:02:28.397Z,61.49
2022-08-08T21:05:01.212Z,61.31
2022-08-08T21:07:47.647Z,61.49
2022-08-08T21:10:21.603Z,61.16
2022-08-08T21:12:56.745Z,61.21
2022-08-08T21:16:04.677Z,61.22
2022-08-08T21:18:17.122Z,61.28
2022-08-08T21:20:49.137Z,61.17
2022-08-08T21:23:19.341Z,61.37
2022-08-08T21:25:55.614Z,60.76
2022-08-08T21:28:35.480Z,61.10
2022-08-08T21:31:23.188Z,60.55
2022-08-08T21:33:52.509Z,60.55
2022-08-08T21:36:28.680Z,60.29
2022-08-08T21:38:57.924Z,60.40
2022-08-08T21:41:38.104Z,60.93
2022-08-08T21:44:12.114Z,60.93
2022-08-08T21:48:05.918Z,60.53
2022-08-08T21:49:31.528Z,60.90
2022-08-08T21:54:31.284Z,60.69
2022-08-08T21:54:54.797Z,60.72
2022-08-08T21:57:42.219Z,61.20
2022-08-08T22:00:15.355Z,60.98
2022-08-08T22:02:55.857Z,61.23
2022-08-08T22:05:25.692Z,61.09
2022-08-08T22:10:32.675Z,61.26
2022-08-08T22:13:17.867Z,61.87
2022-08-08T22:15:59.156Z,61.71
2022-08-08T22:18:31.012Z,61.66
2022-08-08T22:21:10.769Z,62.05
2022-08-08T22:23:51.578Z,62.01
2022-08-08T22:26:29.681Z,61.99
2022-08-08T22:29:57.095Z,62.44
2022-08-08T22:32:01.634Z,62.53
2022-08-08T22:34:32.982Z,62.71
2022-08-08T22:37:01.778Z,62.77
2022-08-08T22:39:45.873Z,62.89
2022-08-08T22:42:27.487Z,63.23
2022-08-08T22:45:05.387Z,63.32
2022-08-08T22:47:48.751Z,63.68
2022-08-08T22:50:27.216Z,63.74
2022-08-08T22:53:24.138Z,63.75
2022-08-08T22:55:58.263Z,64.06
2022-08-08T22:58:31.204Z,64.27
2022-08-08T23:02:00.644Z,64.05
2022-08-08T23:03:56.108Z,64.07
2022-08-08T23:06:25.392Z,63.98
2022-08-08T23:08:54.569Z,64.23
2022-08-08T23:11:30.808Z,64.15
2022-08-08T23:14:16.563Z,64.44
2022-08-08T23:16:57.712Z,64.55
2022-08-08T23:19:30.758Z,65.00
2022-08-08T23:22:04.097Z,64.99
2022-08-08T23:24:36.351Z,64.91
2022-08-08T23:27:06.098Z,65.26
2022-08-08T23:29:34.725Z,65.49
2022-08-08T23:32:07.046Z,65.23
2022-08-08T23:34:39.447Z,65.53
2022-08-08T23:37:24.530Z,65.62
2022-08-08T23:39:55.555Z,65.82
2022-08-08T23:42:26.270Z,65.38
2022-08-08T23:44:57.639Z,65.42
2022-08-08T23:49:06.559Z,65.23
2022-08-08T23:50:30.583Z,65.72
2022-08-08T23:53:05.340Z,65.71
2022-08-08T23:55:42.244Z,65.96
2022-08-08T23:58:37.385Z,66.21
